createdAt,value
2023-03-19T00:00:43.898Z,5.40
2023-03-19T00:03:11.084Z,5.40
2023-03-19T00:05:38.440Z,5.50
2023-03-19T00:08:06.190Z,5.50
2023-03-19T00:10:33.156Z,5.50
2023-03-19T00:13:00.154Z,5.50
2023-03-19T00:15:27.034Z,5.50
2023-03-19T00:17:54.455Z,5.50
2023-03-19T00:20:22.341Z,5.50
2023-03-19T00:22:49.240Z,5.60
2023-03-19T00:25:16.231Z,5.60
2023-03-19T00:27:44.690Z,5.60
2023-03-19T00:30:12.367Z,5.60
2023-03-19T00:32:39.635Z,5.60
2023-03-19T00:35:07.369Z,5.60
2023-03-19T00:37:35.078Z,5.60
2023-03-19T00:40:02.556Z,5.60
2023-03-19T00:42:29.494Z,5.60
2023-03-19T00:44:56.938Z,5.60
2023-03-19T00:47:24.322Z,5.50
2023-03-19T00:49:51.450Z,5.50
2023-03-19T00:52:18.432Z,5.40
2023-03-19T00:54:45.565Z,5.40
2023-03-19T00:57:12.515Z,5.40
2023-03-19T00:59:39.449Z,5.30
2023-03-19T01:02:06.373Z,5.30
2023-03-19T01:04:33.359Z,5.30
2023-03-19T01:07:03.305Z,5.20
2023-03-19T01:09:30.307Z,5.20
2023-03-19T01:11:57.259Z,5.30
2023-03-19T01:14:24.189Z,5.30
2023-03-19T01:16:51.246Z,5.20
2023-03-19T01:19:18.134Z,5.10
2023-03-19T01:21:46.615Z,5.10
2023-03-19T01:24:13.780Z,5.20
2023-03-19T01:26:40.713Z,5.10
2023-03-19T01:29:08.233Z,5.10
2023-03-19T01:31:36.067Z,5.10
2023-03-19T01:34:04.134Z,5.10
2023-03-19T01:36:31.502Z,5.10
2023-03-19T01:38:59.225Z,5.20
2023-03-19T01:41:26.437Z,5.20
2023-03-19T01:43:53.311Z,5.20
2023-03-19T01:46:28.770Z,5.20
2023-03-19T01:48:59.952Z,5.30
2023-03-19T01:51:30.286Z,5.10
2023-03-19T01:54:00.745Z,5.10
2023-03-19T01:56:32.717Z,5.10
2023-03-19T01:59:06.756Z,5.00
2023-03-19T02:01:38.058Z,5.00
2023-03-19T02:04:07.136Z,5.00
2023-03-19T02:06:35.621Z,4.90
2023-03-19T02:09:03.440Z,4.90
2023-03-19T02:11:31.304Z,4.90
2023-03-19T02:13:58.457Z,4.80
2023-03-19T02:16:25.667Z,4.80
2023-03-19T02:18:53.870Z,4.80
2023-03-19T02:21:22.167Z,4.80
2023-03-19T02:24:11.351Z,4.80
2023-03-19T02:26:39.722Z,4.80
2023-03-19T02:29:06.899Z,4.80
2023-03-19T02:31:34.127Z,4.80
2023-03-19T02:34:03.629Z,4.80
2023-03-19T02:36:39.299Z,4.70
2023-03-19T02:39:08.818Z,4.80
2023-03-19T02:41:39.647Z,4.80
2023-03-19T02:44:07.953Z,4.80
2023-03-19T02:46:34.915Z,4.80
2023-03-19T02:49:01.845Z,4.80
2023-03-19T02:51:28.766Z,4.80
2023-03-19T02:53:55.792Z,4.80
2023-03-19T02:56:23.527Z,4.70
2023-03-19T02:58:50.583Z,4.70
2023-03-19T03:01:17.716Z,4.70
2023-03-19T03:03:44.688Z,4.70
2023-03-19T03:06:11.719Z,4.70
2023-03-19T03:08:38.917Z,4.70
2023-03-19T03:11:06.025Z,4.70
2023-03-19T03:13:33.058Z,4.70
2023-03-19T03:16:00.006Z,4.60
2023-03-19T03:18:27.124Z,4.60
2023-03-19T03:20:54.116Z,4.60
2023-03-19T03:23:22.115Z,4.50
2023-03-19T03:25:50.782Z,4.50
2023-03-19T03:28:19.164Z,4.50
2023-03-19T03:30:47.135Z,4.60
2023-03-19T03:33:14.065Z,4.50
2023-03-19T03:35:41.165Z,4.50
2023-03-19T03:38:08.106Z,4.60
2023-03-19T03:40:36.740Z,4.60
2023-03-19T03:43:03.778Z,4.50
2023-03-19T03:45:30.972Z,4.50
2023-03-19T03:47:57.890Z,4.60
2023-03-19T03:50:24.820Z,4.60
2023-03-19T03:52:51.979Z,4.60
2023-03-19T03:55:18.984Z,4.60
2023-03-19T03:57:45.878Z,4.60
2023-03-19T04:00:13.449Z,4.60
2023-03-19T04:02:40.506Z,4.60
2023-03-19T04:05:07.865Z,4.60
2023-03-19T04:07:34.855Z,4.60
2023-03-19T04:10:02.043Z,4.60
2023-03-19T04:12:29.027Z,4.60
2023-03-19T04:14:55.912Z,4.70
2023-03-19T04:17:23.775Z,4.60
2023-03-19T04:19:51.213Z,4.60
2023-03-19T04:22:18.307Z,4.60
2023-03-19T04:24:45.374Z,4.60
2023-03-19T04:27:12.365Z,4.60
2023-03-19T04:29:39.241Z,4.60
2023-03-19T04:32:06.582Z,4.60
2023-03-19T04:34:33.545Z,4.50
2023-03-19T04:37:00.499Z,4.40
2023-03-19T04:39:28.082Z,4.40
2023-03-19T04:41:55.974Z,4.20
2023-03-19T04:44:23.778Z,4.30
2023-03-19T04:46:50.737Z,4.30
2023-03-19T04:49:18.104Z,4.30
2023-03-19T04:51:44.991Z,4.30
2023-03-19T04:54:12.199Z,4.30
2023-03-19T04:56:39.335Z,4.30
2023-03-19T04:59:06.823Z,4.10
2023-03-19T05:01:33.761Z,4.00
2023-03-19T05:04:00.759Z,4.00
2023-03-19T05:06:27.744Z,3.90
2023-03-19T05:08:54.858Z,4.00
2023-03-19T05:11:21.766Z,4.10
2023-03-19T05:13:48.760Z,4.20
2023-03-19T05:16:15.797Z,4.20
2023-03-19T05:18:43.494Z,4.30
2023-03-19T05:21:12.369Z,4.40
2023-03-19T05:23:39.819Z,4.30
2023-03-19T05:26:07.036Z,4.50
2023-03-19T05:28:34.972Z,4.70
2023-03-19T05:31:03.514Z,4.90
2023-03-19T05:33:30.769Z,4.90
2023-03-19T05:35:58.404Z,4.90
2023-03-19T05:38:25.467Z,5.00
2023-03-19T05:40:52.520Z,5.20
2023-03-19T05:43:19.437Z,5.50
2023-03-19T05:45:51.479Z,5.90
2023-03-19T05:48:18.683Z,6.20
2023-03-19T05:50:45.747Z,6.40
2023-03-19T05:53:13.154Z,6.70
2023-03-19T05:55:40.831Z,7.00
2023-03-19T05:58:07.921Z,7.30
2023-03-19T06:00:35.212Z,7.60
2023-03-19T06:03:02.398Z,8.00
2023-03-19T06:05:29.334Z,8.20
2023-03-19T06:07:56.484Z,8.40
2023-03-19T06:10:23.468Z,8.60
2023-03-19T06:12:50.387Z,8.90
2023-03-19T06:15:17.712Z,9.10
2023-03-19T06:17:44.912Z,9.30
2023-03-19T06:20:13.090Z,9.50
2023-03-19T06:22:40.664Z,9.70
2023-03-19T06:25:07.897Z,9.80
2023-03-19T06:27:34.786Z,10.00
2023-03-19T06:30:01.786Z,10.10
2023-03-19T06:32:28.694Z,10.30
2023-03-19T06:34:56.343Z,10.50
2023-03-19T06:37:23.282Z,10.50
2023-03-19T06:39:51.127Z,10.60
2023-03-19T06:42:18.076Z,10.40
2023-03-19T06:44:44.964Z,10.40
2023-03-19T06:47:11.987Z,10.60
2023-03-19T06:49:38.879Z,10.80
2023-03-19T06:52:06.232Z,11.00
2023-03-19T06:54:33.569Z,11.00
2023-03-19T06:57:00.460Z,10.90
2023-03-19T06:59:27.330Z,11.00
2023-03-19T07:01:54.394Z,11.00
2023-03-19T07:04:21.479Z,11.20
2023-03-19T07:06:48.376Z,11.20
2023-03-19T07:09:15.491Z,11.60
2023-03-19T07:11:42.525Z,11.80
2023-03-19T07:14:09.601Z,11.80
2023-03-19T07:16:36.597Z,11.90
2023-03-19T07:19:03.879Z,11.70
2023-03-19T07:21:30.809Z,11.80
2023-03-19T07:23:57.696Z,11.80
2023-03-19T07:26:24.585Z,11.90
2023-03-19T07:28:51.665Z,11.90
2023-03-19T07:31:18.753Z,12.00
2023-03-19T07:33:45.817Z,12.30
2023-03-19T07:36:12.855Z,12.40
2023-03-19T07:38:39.853Z,12.80
2023-03-19T07:41:06.732Z,12.70
2023-03-19T07:43:33.793Z,12.60
2023-03-19T07:46:01.079Z,13.00
2023-03-19T07:48:28.177Z,13.10
2023-03-19T07:50:55.242Z,12.70
2023-03-19T07:53:22.443Z,12.90
2023-03-19T07:55:49.338Z,13.20
2023-03-19T07:58:17.096Z,13.20
2023-03-19T08:00:45.162Z,13.00
2023-03-19T08:03:12.694Z,13.50
2023-03-19T08:05:39.872Z,14.00
2023-03-19T08:08:07.436Z,14.10
2023-03-19T08:10:36.403Z,14.10
2023-03-19T08:13:05.392Z,14.20
2023-03-19T08:15:32.992Z,14.20
2023-03-19T08:18:01.404Z,14.90
2023-03-19T08:20:28.266Z,15.10
2023-03-19T08:22:55.140Z,15.10
2023-03-19T08:25:22.327Z,15.00
2023-03-19T08:27:49.773Z,15.00
2023-03-19T08:30:17.159Z,14.90
2023-03-19T08:32:45.080Z,14.70
2023-03-19T08:35:12.744Z,14.90
2023-03-19T08:37:39.733Z,14.90
2023-03-19T08:40:07.349Z,15.20
2023-03-19T08:42:34.760Z,15.00
2023-03-19T08:45:01.617Z,15.00
2023-03-19T08:47:28.573Z,14.90
2023-03-19T08:49:55.882Z,14.70
2023-03-19T08:52:22.828Z,15.20
2023-03-19T08:54:49.951Z,14.80
2023-03-19T08:57:16.913Z,14.80
2023-03-19T08:59:43.852Z,15.30
2023-03-19T09:02:12.477Z,15.40
2023-03-19T09:04:43.761Z,15.40
2023-03-19T09:07:15.930Z,15.50
2023-03-19T09:09:43.785Z,15.40
2023-03-19T09:12:13.453Z,15.80
2023-03-19T09:14:40.519Z,15.40
2023-03-19T09:17:08.298Z,15.50
2023-03-19T09:19:35.904Z,15.60
2023-03-19T09:22:03.543Z,15.30
2023-03-19T09:24:30.752Z,15.50
2023-03-19T09:26:57.620Z,15.70
2023-03-19T09:29:24.617Z,16.10
2023-03-19T09:31:51.604Z,16.20
2023-03-19T09:34:18.775Z,16.60
2023-03-19T09:36:45.832Z,16.30
2023-03-19T09:39:12.849Z,16.40
2023-03-19T09:42:24.257Z,16.90
2023-03-19T09:44:53.347Z,16.40
2023-03-19T09:47:33.785Z,16.20
2023-03-19T09:50:11.407Z,16.00
2023-03-19T09:52:58.834Z,15.90
2023-03-19T09:55:37.449Z,15.80
2023-03-19T09:58:15.736Z,15.50
2023-03-19T10:00:44.391Z,15.30
2023-03-19T10:03:49.191Z,15.40
2023-03-19T10:06:27.790Z,15.20
2023-03-19T10:09:27.356Z,15.20
2023-03-19T10:12:19.213Z,15.00
2023-03-19T10:15:11.641Z,14.90
2023-03-19T10:17:43.187Z,15.00
2023-03-19T10:20:30.476Z,15.10
2023-03-19T10:23:08.455Z,14.90
2023-03-19T10:25:41.506Z,15.20
2023-03-19T10:28:16.413Z,15.20
2023-03-19T10:31:07.662Z,15.00
2023-03-19T10:33:58.830Z,14.70
2023-03-19T10:36:35.392Z,14.70
2023-03-19T10:39:05.642Z,15.00
2023-03-19T10:41:38.475Z,14.90
2023-03-19T10:44:12.249Z,14.60
2023-03-19T10:46:42.340Z,14.50
2023-03-19T10:49:14.389Z,14.50
2023-03-19T10:51:45.589Z,14.50
2023-03-19T10:54:24.891Z,14.50
2023-03-19T10:56:55.968Z,14.60
2023-03-19T10:59:36.857Z,14.90
2023-03-19T11:02:33.648Z,15.00
2023-03-19T11:05:08.430Z,15.10
2023-03-19T11:07:37.368Z,15.20
2023-03-19T11:10:05.053Z,14.90
2023-03-19T11:12:37.666Z,14.70
2023-03-19T11:15:16.250Z,14.70
2023-03-19T11:17:47.485Z,14.70
2023-03-19T11:20:33.947Z,14.70
2023-03-19T11:23:04.210Z,14.60
2023-03-19T11:25:38.507Z,14.60
2023-03-19T11:28:19.668Z,14.60
2023-03-19T11:31:07.378Z,14.70
2023-03-19T11:34:02.423Z,14.90
2023-03-19T11:36:41.435Z,14.80
2023-03-19T11:39:43.645Z,14.60
2023-03-19T11:42:28.810Z,14.60
2023-03-19T11:45:01.802Z,14.70
2023-03-19T11:47:46.840Z,14.60
2023-03-19T11:50:31.844Z,14.60
2023-03-19T11:53:21.453Z,14.80
2023-03-19T11:56:01.242Z,15.00
2023-03-19T11:58:49.948Z,15.10
2023-03-19T12:01:39.903Z,14.80
2023-03-19T12:04:28.188Z,15.00
2023-03-19T12:07:04.267Z,15.10
2023-03-19T12:09:52.429Z,15.20
2023-03-19T12:12:29.413Z,15.20
2023-03-19T12:14:56.275Z,15.10
2023-03-19T12:17:44.030Z,15.10
2023-03-19T12:20:29.500Z,15.10
2023-03-19T12:23:22.632Z,15.10
2023-03-19T12:25:53.183Z,15.20
2023-03-19T12:28:39.658Z,15.30
2023-03-19T12:31:09.476Z,15.30
2023-03-19T12:33:36.368Z,15.30
2023-03-19T12:36:09.928Z,15.30
2023-03-19T12:38:36.883Z,15.30
2023-03-19T12:41:11.266Z,15.40
2023-03-19T12:43:53.426Z,15.50
2023-03-19T12:46:46.071Z,15.60
2023-03-19T12:49:24.969Z,15.60
2023-03-19T12:52:04.213Z,15.60
2023-03-19T12:54:38.724Z,15.50
2023-03-19T12:57:24.526Z,15.60
2023-03-19T12:59:54.589Z,15.60
2023-03-19T13:02:50.134Z,15.60
2023-03-19T13:05:38.997Z,15.60
2023-03-19T13:08:25.133Z,15.60
2023-03-19T13:10:52.152Z,15.80
2023-03-19T13:13:37.497Z,15.70
2023-03-19T13:16:19.523Z,15.70
2023-03-19T13:19:05.237Z,15.80
2023-03-19T13:21:35.996Z,15.90
2023-03-19T13:24:26.758Z,15.90
2023-03-19T13:26:56.519Z,15.90
2023-03-19T13:29:24.767Z,15.90
2023-03-19T13:31:53.319Z,15.80
2023-03-19T13:34:22.453Z,15.80
2023-03-19T13:36:54.574Z,15.70
2023-03-19T13:39:28.792Z,15.80
2023-03-19T13:42:09.169Z,15.70
2023-03-19T13:44:43.057Z,15.60
2023-03-19T13:47:36.445Z,15.60
2023-03-19T13:50:11.788Z,15.60
2023-03-19T13:52:44.984Z,15.70
2023-03-19T13:55:26.965Z,15.60
2023-03-19T13:58:38.580Z,15.60
2023-03-19T14:01:07.489Z,15.60
2023-03-19T14:03:37.334Z,15.50
2023-03-19T14:06:04.745Z,15.50
2023-03-19T14:08:32.156Z,15.50
2023-03-19T14:11:00.998Z,15.50
2023-03-19T14:13:48.002Z,15.50
2023-03-19T14:16:19.862Z,15.60
2023-03-19T14:18:50.512Z,15.60
2023-03-19T14:21:36.099Z,15.70
2023-03-19T14:24:55.389Z,15.80
2023-03-19T14:27:26.462Z,15.90
2023-03-19T14:29:55.431Z,15.90
2023-03-19T14:32:28.762Z,15.90
2023-03-19T14:34:57.842Z,15.90
2023-03-19T14:37:37.373Z,15.90
2023-03-19T14:40:19.259Z,15.90
2023-03-19T14:43:05.305Z,16.00
2023-03-19T14:45:51.378Z,15.90
2023-03-19T14:48:31.805Z,15.80
2023-03-19T14:51:10.714Z,15.80
2023-03-19T14:53:54.623Z,15.80
2023-03-19T14:56:31.203Z,15.80
2023-03-19T14:59:04.036Z,15.80
2023-03-19T15:01:34.070Z,15.80
2023-03-19T15:04:08.107Z,15.80
2023-03-19T15:06:39.037Z,15.90
2023-03-19T15:09:31.757Z,15.90
2023-03-19T15:12:17.410Z,15.90
2023-03-19T15:15:28.947Z,15.80
2023-03-19T15:18:05.354Z,15.80
2023-03-19T15:20:42.570Z,15.80
2023-03-19T15:23:25.679Z,15.80
2023-03-19T15:26:02.266Z,15.80
2023-03-19T15:28:44.649Z,15.80
2023-03-19T15:31:29.838Z,15.80
2023-03-19T15:33:59.485Z,15.80
2023-03-19T15:36:33.924Z,15.70
2023-03-19T15:39:14.546Z,15.70
2023-03-19T15:41:47.291Z,15.50
2023-03-19T15:44:26.047Z,15.50
2023-03-19T15:46:55.683Z,15.50
2023-03-19T15:49:31.413Z,15.40
2023-03-19T15:52:04.962Z,15.40
2023-03-19T15:54:34.111Z,15.40
2023-03-19T15:57:01.861Z,15.40
2023-03-19T15:59:31.895Z,15.30
2023-03-19T16:02:11.534Z,15.30
2023-03-19T16:05:06.782Z,15.20
2023-03-19T16:07:45.562Z,15.20
2023-03-19T16:10:39.668Z,15.20
2023-03-19T16:13:41.182Z,15.20
2023-03-19T16:16:23.726Z,15.10
2023-03-19T16:18:53.850Z,15.10
2023-03-19T16:21:36.733Z,15.00
2023-03-19T16:24:44.388Z,15.00
2023-03-19T16:27:21.029Z,14.90
2023-03-19T16:30:00.539Z,14.90
2023-03-19T16:32:31.138Z,14.80
2023-03-19T16:35:05.949Z,14.80
2023-03-19T16:37:42.961Z,14.70
2023-03-19T16:40:18.078Z,14.60
2023-03-19T16:42:54.741Z,14.50
2023-03-19T16:45:30.882Z,14.50
2023-03-19T16:48:04.084Z,14.40
2023-03-19T16:50:38.075Z,14.30
2023-03-19T16:53:15.027Z,14.30
2023-03-19T16:55:43.052Z,14.20
2023-03-19T16:58:20.063Z,14.20
2023-03-19T17:00:51.257Z,14.20
2023-03-19T17:03:20.956Z,14.10
2023-03-19T17:05:52.080Z,14.00
2023-03-19T17:08:22.484Z,14.00
2023-03-19T17:10:52.621Z,14.00
2023-03-19T17:13:28.834Z,14.00
2023-03-19T17:16:03.518Z,13.90
2023-03-19T17:18:38.021Z,13.90
2023-03-19T17:21:17.307Z,13.90
2023-03-19T17:23:45.061Z,13.90
2023-03-19T17:26:28.320Z,13.80
2023-03-19T17:28:57.429Z,13.80
2023-03-19T17:31:34.663Z,13.80
2023-03-19T17:34:05.653Z,13.70
2023-03-19T17:36:34.634Z,13.70
2023-03-19T17:39:02.966Z,13.70
2023-03-19T17:41:33.651Z,13.70
2023-03-19T17:44:04.323Z,13.70
2023-03-19T17:46:41.846Z,13.70
2023-03-19T17:49:23.694Z,13.60
2023-03-19T17:51:53.260Z,13.60
2023-03-19T17:54:21.983Z,13.60
2023-03-19T17:56:50.494Z,13.50
2023-03-19T17:59:18.662Z,13.40
2023-03-19T18:01:50.190Z,13.30
2023-03-19T18:04:21.974Z,13.30
2023-03-19T18:06:58.030Z,13.20
2023-03-19T18:09:33.024Z,13.20
2023-03-19T18:12:00.976Z,13.20
2023-03-19T18:14:30.538Z,13.10
2023-03-19T18:16:58.902Z,13.10
2023-03-19T18:19:31.446Z,13.00
2023-03-19T18:21:59.684Z,12.90
2023-03-19T18:24:29.147Z,12.90
2023-03-19T18:26:57.014Z,12.90
2023-03-19T18:29:24.632Z,12.80
2023-03-19T18:31:53.147Z,12.80
2023-03-19T18:34:21.106Z,12.80
2023-03-19T18:36:49.086Z,12.80
2023-03-19T18:39:17.538Z,12.80
2023-03-19T18:41:45.921Z,12.80
2023-03-19T18:44:15.038Z,12.80
2023-03-19T18:46:43.611Z,12.80
2023-03-19T18:49:27.149Z,12.80
2023-03-19T18:52:02.975Z,12.80
2023-03-19T18:54:32.740Z,12.80
2023-03-19T18:57:02.966Z,12.80
2023-03-19T18:59:33.696Z,12.80
2023-03-19T19:02:21.354Z,12.80
2023-03-19T19:04:49.683Z,12.80
2023-03-19T19:07:19.126Z,12.80
2023-03-19T19:09:47.488Z,12.70
2023-03-19T19:12:18.640Z,12.70
2023-03-19T19:14:50.054Z,12.70
2023-03-19T19:17:20.650Z,12.70
2023-03-19T19:19:48.289Z,12.70
2023-03-19T19:22:18.412Z,12.60
2023-03-19T19:24:46.393Z,12.50
2023-03-19T19:27:29.151Z,12.40
2023-03-19T19:29:57.690Z,12.40
2023-03-19T19:32:28.755Z,12.40
2023-03-19T19:34:57.305Z,12.30
2023-03-19T19:37:24.965Z,12.30
2023-03-19T19:39:55.731Z,12.40
2023-03-19T19:42:27.057Z,12.40
2023-03-19T19:44:59.543Z,12.30
2023-03-19T19:47:30.143Z,12.40
2023-03-19T19:50:01.258Z,12.40
2023-03-19T19:52:31.776Z,12.40
2023-03-19T19:54:59.827Z,12.30
2023-03-19T19:57:28.064Z,12.40
2023-03-19T19:59:56.258Z,12.30
2023-03-19T20:02:28.684Z,12.30
2023-03-19T20:04:57.558Z,12.30
2023-03-19T20:07:25.674Z,12.30
2023-03-19T20:09:53.851Z,12.40
2023-03-19T20:12:25.247Z,12.30
2023-03-19T20:14:54.791Z,12.20
2023-03-19T20:17:23.114Z,12.20
2023-03-19T20:19:52.461Z,12.20
2023-03-19T20:22:21.099Z,12.10
2023-03-19T20:24:51.555Z,12.10
2023-03-19T20:27:26.476Z,12.00
2023-03-19T20:29:54.948Z,12.00
2023-03-19T20:32:41.042Z,12.00
2023-03-19T20:35:18.680Z,11.90
2023-03-19T20:37:48.444Z,11.80
2023-03-19T20:40:21.206Z,11.80
2023-03-19T20:42:53.455Z,11.70
2023-03-19T20:45:24.503Z,11.70
2023-03-19T20:47:53.600Z,11.60
2023-03-19T20:50:24.461Z,11.50
2023-03-19T20:52:54.003Z,11.60
2023-03-19T20:55:24.778Z,11.50
2023-03-19T20:57:54.694Z,11.50
2023-03-19T21:00:28.809Z,11.40
2023-03-19T21:02:58.819Z,11.40
2023-03-19T21:05:40.156Z,11.30
2023-03-19T21:08:19.681Z,11.30
2023-03-19T21:10:51.909Z,11.20
2023-03-19T21:13:21.761Z,11.20
2023-03-19T21:15:54.623Z,11.00
2023-03-19T21:18:22.802Z,11.00
2023-03-19T21:20:55.216Z,11.00
2023-03-19T21:23:38.799Z,10.90
2023-03-19T21:26:16.917Z,10.80
2023-03-19T21:28:46.809Z,10.90
2023-03-19T21:31:20.944Z,10.90
2023-03-19T21:33:52.138Z,10.80
2023-03-19T21:36:19.551Z,10.80
2023-03-19T21:38:46.838Z,10.80
2023-03-19T21:41:30.469Z,10.80
2023-03-19T21:44:02.611Z,10.90
2023-03-19T21:46:31.602Z,10.80
2023-03-19T21:48:59.621Z,10.80
2023-03-19T21:51:28.721Z,10.70
2023-03-19T21:53:56.131Z,10.80
2023-03-19T21:56:34.573Z,10.80
2023-03-19T21:59:06.812Z,10.80
2023-03-19T22:01:33.899Z,10.80
2023-03-19T22:04:00.992Z,10.80
2023-03-19T22:06:28.279Z,10.80
2023-03-19T22:08:55.306Z,10.90
2023-03-19T22:11:31.599Z,10.80
2023-03-19T22:14:08.159Z,10.80
2023-03-19T22:16:35.216Z,10.80
2023-03-19T22:19:02.207Z,10.70
2023-03-19T22:21:33.003Z,10.80
2023-03-19T22:24:00.064Z,10.70
2023-03-19T22:26:41.495Z,10.70
2023-03-19T22:29:15.915Z,10.70
2023-03-19T22:31:43.117Z,10.70
2023-03-19T22:34:17.744Z,10.70
2023-03-19T22:36:45.378Z,10.70
2023-03-19T22:39:12.755Z,10.70
2023-03-19T22:41:43.921Z,10.70
2023-03-19T22:44:25.825Z,10.70
2023-03-19T22:46:55.500Z,10.70
2023-03-19T22:49:22.453Z,10.60
2023-03-19T22:51:49.403Z,10.60
2023-03-19T22:54:16.446Z,10.60
2023-03-19T22:56:43.880Z,10.60
2023-03-19T22:59:10.837Z,10.70
2023-03-19T23:01:43.570Z,10.70
2023-03-19T23:04:22.740Z,10.70
2023-03-19T23:06:50.811Z,10.60
2023-03-19T23:09:37.783Z,10.60
2023-03-19T23:12:06.129Z,10.60
2023-03-19T23:14:33.138Z,10.50
2023-03-19T23:17:06.732Z,10.50
2023-03-19T23:19:38.566Z,10.50
2023-03-19T23:22:07.663Z,10.50
2023-03-19T23:24:34.847Z,10.50
2023-03-19T23:27:02.841Z,10.50
2023-03-19T23:29:34.436Z,10.50
2023-03-19T23:32:01.800Z,10.50
2023-03-19T23:34:28.911Z,10.50
2023-03-19T23:36:56.830Z,10.50
2023-03-19T23:39:24.608Z,10.40
2023-03-19T23:41:55.769Z,10.50
2023-03-19T23:44:22.706Z,10.40
2023-03-19T23:46:51.639Z,10.40
2023-03-19T23:49:29.023Z,10.40
2023-03-19T23:51:56.947Z,10.40
2023-03-19T23:54:29.714Z,10.40
2023-03-19T23:56:59.859Z,10.40
2023-03-19T23:59:32.416Z,10.30
